Terminal Aerodrome Forecast
Issued by NWS

Home | Current Version | Previous Version | Graphics & Text | Print | Product List | Glossary On
Versions: 1 2 3 4 5 6 7 8 9 10 11 12 13 14 15 16 17 18 19 20 21 22 23 24 25 26 27 28 29 30 31 32 33 34
000
FTUS43 KLOT 260300 AAB
TAFMDW
TAF AMD
KMDW 260359Z 2604/2624 04009KT 2SM -SN BR SCT015 BKN025
      TEMPO 2604/2608 1/2SM SN FG OVC011
     FM260800 04011KT 1SM -SHSN BKN013 OVC025
     FM261500 02012G17KT 2SM -SHSN BKN014 OVC020
     FM261800 36012G17KT P6SM VCSH OVC020
     FM262200 34012KT P6SM BKN035=

USA.gov is the U.S. government's official web portal to all federal, state and local government web resources and services.